createdAt,value
2023-02-11T09:33:22.761Z,5.16
2023-02-11T09:35:25.714Z,5.50
2023-02-11T09:37:28.595Z,5.74
2023-02-11T09:39:31.443Z,5.97
2023-02-11T09:41:50.527Z,6.14
2023-02-11T09:43:55.166Z,6.28
2023-02-11T09:45:58.627Z,6.39
2023-02-11T09:48:06.454Z,6.50
2023-02-11T09:50:14.351Z,6.57
2023-02-11T09:52:30.033Z,6.63
2023-02-11T09:54:38.550Z,6.68
2023-02-11T09:56:41.518Z,6.74
2023-02-11T09:58:46.108Z,6.77
2023-02-11T10:00:54.902Z,6.80
2023-02-11T10:03:22.771Z,6.85
2023-02-11T10:05:44.435Z,6.90
2023-02-11T10:07:52.864Z,6.92
2023-02-11T10:10:08.685Z,6.94
2023-02-11T10:12:31.523Z,6.96
2023-02-11T10:14:47.295Z,6.99
2023-02-11T10:17:04.695Z,7.03
2023-02-11T10:19:24.966Z,7.03
2023-02-11T10:21:37.500Z,7.04
2023-02-11T10:23:45.193Z,7.05
2023-02-11T10:25:52.956Z,7.08
2023-02-11T10:27:59.336Z,7.11
2023-02-11T10:30:07.783Z,7.14
2023-02-11T10:32:24.285Z,7.17
2023-02-11T10:34:27.316Z,7.23
2023-02-11T10:36:34.859Z,7.24
2023-02-11T10:38:38.101Z,7.25
2023-02-11T10:40:41.331Z,7.27
2023-02-11T10:42:48.172Z,7.28
2023-02-11T10:44:58.769Z,7.28
2023-02-11T10:47:06.206Z,7.31
2023-02-11T10:49:09.296Z,7.32
2023-02-11T10:51:21.866Z,7.35
2023-02-11T10:53:26.128Z,7.38
2023-02-11T10:55:29.224Z,7.40
2023-02-11T10:57:36.014Z,7.43
2023-02-11T10:59:40.384Z,7.46
2023-02-11T11:01:47.703Z,7.44
2023-02-11T11:03:53.476Z,7.47
2023-02-11T11:05:58.864Z,7.46
2023-02-11T11:08:05.956Z,7.42
2023-02-11T11:10:28.548Z,7.44
2023-02-11T11:12:35.730Z,7.44
2023-02-11T11:14:38.767Z,7.48
2023-02-11T11:16:54.806Z,7.48
2023-02-11T11:19:16.955Z,7.47
2023-02-11T11:21:23.277Z,7.49
2023-02-11T11:23:27.136Z,7.52
2023-02-11T11:25:32.183Z,7.53
2023-02-11T11:27:38.891Z,7.54
2023-02-11T11:29:48.266Z,7.51
2023-02-11T11:31:55.057Z,7.51
2023-02-11T11:34:00.392Z,7.55
2023-02-11T11:36:07.662Z,7.56
2023-02-11T11:38:16.216Z,7.54
2023-02-11T11:40:25.018Z,7.54
2023-02-11T11:42:31.113Z,7.53
2023-02-11T11:44:35.628Z,7.58
2023-02-11T11:46:42.283Z,7.60
2023-02-11T11:48:50.664Z,7.58
2023-02-11T11:50:57.182Z,7.58
2023-02-11T11:53:05.620Z,7.58
2023-02-11T11:55:28.080Z,7.61
2023-02-11T11:57:36.072Z,7.63
2023-02-11T11:59:39.299Z,7.68
2023-02-11T12:01:55.918Z,7.69
2023-02-11T12:04:16.411Z,7.69
2023-02-11T12:06:32.441Z,7.72
2023-02-11T12:08:45.123Z,7.72
2023-02-11T12:11:03.036Z,7.77
2023-02-11T12:13:20.052Z,7.79
2023-02-11T12:15:33.666Z,7.84
2023-02-11T12:17:53.398Z,7.85
2023-02-11T12:20:05.549Z,7.87
2023-02-11T12:22:12.242Z,7.88
2023-02-11T12:24:30.707Z,7.88
2023-02-11T12:26:42.913Z,7.91
2023-02-11T12:29:03.202Z,7.92
2023-02-11T12:31:31.362Z,7.94
2023-02-11T12:33:53.710Z,7.91
2023-02-11T12:36:02.692Z,7.92
2023-02-11T12:38:26.090Z,7.92
2023-02-11T12:40:40.456Z,7.92
2023-02-11T12:43:15.372Z,7.95
2023-02-11T12:45:28.659Z,8.03
2023-02-11T12:47:41.201Z,8.06
2023-02-11T12:50:08.457Z,8.09
2023-02-11T12:52:28.180Z,8.13
2023-02-11T12:54:37.157Z,8.13
2023-02-11T12:56:46.391Z,8.15
2023-02-11T12:58:53.665Z,8.20
2023-02-11T13:01:04.359Z,8.19
2023-02-11T13:03:14.698Z,8.21
2023-02-11T13:05:26.234Z,8.23
2023-02-11T13:07:33.970Z,8.24
2023-02-11T13:09:43.092Z,8.22
2023-02-11T13:11:51.989Z,8.19
2023-02-11T13:14:02.431Z,8.21
2023-02-11T13:16:14.790Z,8.22
2023-02-11T13:18:28.781Z,8.23
2023-02-11T13:20:42.052Z,8.25
2023-02-11T13:22:51.197Z,8.23
2023-02-11T13:24:59.737Z,8.16
2023-02-11T13:27:11.680Z,8.11
2023-02-11T13:29:25.020Z,8.10
2023-02-11T13:31:30.143Z,8.08
2023-02-11T13:33:35.707Z,8.07
2023-02-11T13:35:40.149Z,8.11
2023-02-11T13:37:48.961Z,8.17
2023-02-11T13:40:02.671Z,8.22
2023-02-11T13:42:06.005Z,8.24
2023-02-11T13:44:25.923Z,8.27
2023-02-11T13:46:48.998Z,8.29
2023-02-11T13:48:53.901Z,8.28
2023-02-11T13:50:59.775Z,8.26
2023-02-11T13:53:04.737Z,8.26
2023-02-11T13:55:16.122Z,8.28
2023-02-11T13:57:31.430Z,8.32
2023-02-11T13:59:52.866Z,8.31
2023-02-11T14:02:39.034Z,8.33
2023-02-11T14:05:29.160Z,8.34
2023-02-11T14:07:51.763Z,8.36
2023-02-11T14:09:57.050Z,8.38
2023-02-11T14:12:35.078Z,8.37
2023-02-11T14:15:03.878Z,8.37
2023-02-11T14:17:31.747Z,8.35
2023-02-11T14:19:36.263Z,8.34
2023-02-11T14:21:42.734Z,8.33
2023-02-11T14:23:46.000Z,8.33
2023-02-11T14:26:02.522Z,8.35
2023-02-11T14:28:15.988Z,8.37
2023-02-11T14:30:30.662Z,8.38
2023-02-11T14:32:48.296Z,8.40
2023-02-11T14:34:59.737Z,8.38
2023-02-11T14:37:15.327Z,8.38
2023-02-11T14:39:28.130Z,8.38
2023-02-11T14:41:35.305Z,8.39
2023-02-11T14:43:43.030Z,8.39
2023-02-11T14:45:49.111Z,8.42
2023-02-11T14:48:02.673Z,8.46
2023-02-11T14:50:09.976Z,8.47
2023-02-11T14:52:22.602Z,8.47
2023-02-11T14:54:29.049Z,8.47
2023-02-11T14:56:34.460Z,8.48
2023-02-11T14:58:37.385Z,8.51
2023-02-11T15:00:49.966Z,8.50
2023-02-11T15:02:54.506Z,8.47
2023-02-11T15:05:16.249Z,8.51
2023-02-11T15:07:19.381Z,8.52
2023-02-11T15:09:29.440Z,8.52
2023-02-11T15:11:35.795Z,8.52
2023-02-11T15:13:44.663Z,8.53
2023-02-11T15:15:50.174Z,8.54
2023-02-11T15:17:55.212Z,8.53
2023-02-11T15:20:01.289Z,8.53
2023-02-11T15:22:06.969Z,8.53
2023-02-11T15:24:24.505Z,8.54
2023-02-11T15:26:27.470Z,8.55
2023-02-11T15:28:32.280Z,8.58
2023-02-11T15:30:35.281Z,8.56
2023-02-11T15:32:41.233Z,8.57
2023-02-11T15:34:46.815Z,8.59
2023-02-11T15:36:49.623Z,8.60
2023-02-11T15:39:21.310Z,8.59
2023-02-11T15:41:36.740Z,8.60
2023-02-11T15:43:44.950Z,8.60
2023-02-11T15:45:58.114Z,8.58
2023-02-11T15:48:09.139Z,8.58
2023-02-11T15:50:23.298Z,8.59
2023-02-11T15:52:29.031Z,8.61
2023-02-11T15:54:32.633Z,8.61
2023-02-11T15:56:43.224Z,8.61
2023-02-11T15:58:48.910Z,8.62
2023-02-11T16:00:59.506Z,8.62
2023-02-11T16:03:02.345Z,8.63
2023-02-11T16:05:08.999Z,8.63
2023-02-11T16:07:39.543Z,8.63
2023-02-11T16:09:42.431Z,8.63
2023-02-11T16:11:58.024Z,8.61
2023-02-11T16:14:05.155Z,8.61
2023-02-11T16:16:19.663Z,8.58
2023-02-11T16:18:38.454Z,8.57
2023-02-11T16:20:42.128Z,8.60
2023-02-11T16:22:48.072Z,8.58
2023-02-11T16:24:54.065Z,8.57
2023-02-11T16:27:00.108Z,8.58
2023-02-11T16:29:08.110Z,8.57
2023-02-11T16:31:10.993Z,8.56
2023-02-11T16:33:13.929Z,8.54
2023-02-11T16:35:16.735Z,8.53
2023-02-11T16:37:19.625Z,8.52
2023-02-11T16:39:24.144Z,8.52
2023-02-11T16:41:26.874Z,8.53
2023-02-11T16:43:29.958Z,8.53
2023-02-11T16:45:32.902Z,8.53
2023-02-11T16:47:38.740Z,8.51
2023-02-11T16:49:43.687Z,8.49
2023-02-11T16:51:50.131Z,8.48
2023-02-11T16:53:52.813Z,8.48
2023-02-11T16:55:57.031Z,8.46
2023-02-11T16:57:59.782Z,8.44
2023-02-11T17:00:02.521Z,8.43
2023-02-11T17:02:05.460Z,8.46
2023-02-11T17:04:11.673Z,8.44
2023-02-11T17:06:14.959Z,8.43
2023-02-11T17:08:17.824Z,8.41
2023-02-11T17:10:22.637Z,8.38
2023-02-11T17:12:26.955Z,8.37
2023-02-11T17:14:29.867Z,8.39
2023-02-11T17:16:32.680Z,8.40
2023-02-11T17:18:36.792Z,8.39
2023-02-11T17:20:39.574Z,8.39
2023-02-11T17:22:42.421Z,8.41
2023-02-11T17:24:45.288Z,8.41
2023-02-11T17:26:48.851Z,8.41
2023-02-11T17:28:52.926Z,8.39
2023-02-11T17:30:55.701Z,8.37
2023-02-11T17:32:58.821Z,8.35
2023-02-11T17:35:01.586Z,8.30
2023-02-11T17:37:09.078Z,8.29
2023-02-11T17:39:12.045Z,8.28
2023-02-11T17:41:14.782Z,8.28
2023-02-11T17:43:17.598Z,8.28
2023-02-11T17:45:22.472Z,8.29
2023-02-11T17:47:25.333Z,8.27
2023-02-11T17:49:28.420Z,8.28
2023-02-11T17:51:33.655Z,8.25
2023-02-11T17:53:36.420Z,8.25
2023-02-11T17:55:39.411Z,8.26
2023-02-11T17:57:42.463Z,8.27
2023-02-11T17:59:45.240Z,8.26
2023-02-11T18:01:49.656Z,8.23
2023-02-11T18:03:52.485Z,8.23
2023-02-11T18:05:55.319Z,8.24
2023-02-11T18:07:58.214Z,8.25
2023-02-11T18:10:00.975Z,8.25
2023-02-11T18:12:04.061Z,8.22
2023-02-11T18:14:08.994Z,8.22
2023-02-11T18:16:15.538Z,8.22
2023-02-11T18:18:20.007Z,8.22
2023-02-11T18:20:22.810Z,8.20
2023-02-11T18:22:26.041Z,8.20
2023-02-11T18:24:28.868Z,8.18
2023-02-11T18:26:31.681Z,8.18
2023-02-11T18:28:34.629Z,8.18
2023-02-11T18:30:37.493Z,8.16
2023-02-11T18:32:40.410Z,8.13
2023-02-11T18:34:44.601Z,8.16
2023-02-11T18:36:47.850Z,8.15
2023-02-11T18:38:52.521Z,8.17
2023-02-11T18:40:58.536Z,8.16
2023-02-11T18:43:01.419Z,8.14
2023-02-11T18:45:06.987Z,8.10
2023-02-11T18:47:09.834Z,8.11
2023-02-11T18:49:13.100Z,8.12
2023-02-11T18:51:18.990Z,8.10
2023-02-11T18:53:23.008Z,8.09
2023-02-11T18:55:26.355Z,8.09
2023-02-11T18:57:29.267Z,8.10
2023-02-11T18:59:32.029Z,8.08
2023-02-11T19:01:34.911Z,8.07
2023-02-11T19:03:37.767Z,8.07
2023-02-11T19:05:44.492Z,8.08
2023-02-11T19:07:48.650Z,8.08
2023-02-11T19:09:51.499Z,8.06
2023-02-11T19:11:55.403Z,8.07
2023-02-11T19:13:58.156Z,8.07
2023-02-11T19:16:00.948Z,8.05
2023-02-11T19:18:03.759Z,8.06
2023-02-11T19:20:08.065Z,8.05
2023-02-11T19:22:11.341Z,8.05
2023-02-11T19:24:18.967Z,8.05
2023-02-11T19:26:24.714Z,8.05
2023-02-11T19:28:27.605Z,8.05
2023-02-11T19:30:31.020Z,8.04
2023-02-11T19:32:34.041Z,8.03
2023-02-11T19:34:41.513Z,8.02
2023-02-11T19:36:44.777Z,8.03
2023-02-11T19:38:47.885Z,8.01
2023-02-11T19:40:57.930Z,8.00
2023-02-11T19:43:00.887Z,8.01
2023-02-11T19:45:04.000Z,8.01
2023-02-11T19:47:07.774Z,8.00
2023-02-11T19:49:12.428Z,7.98
2023-02-11T19:51:15.413Z,7.98
2023-02-11T19:53:18.189Z,7.98
2023-02-11T19:55:21.040Z,7.98
2023-02-11T19:57:25.178Z,7.96
2023-02-11T19:59:28.159Z,7.94
2023-02-11T20:01:31.011Z,7.95
2023-02-11T20:03:33.840Z,7.95
2023-02-11T20:05:43.332Z,7.95
2023-02-11T20:07:46.201Z,7.96
2023-02-11T20:09:48.967Z,7.96
2023-02-11T20:11:51.799Z,7.94
2023-02-11T20:13:56.328Z,7.94
2023-02-11T20:16:04.861Z,7.93
2023-02-11T20:18:07.673Z,7.93
2023-02-11T20:20:11.321Z,7.93
2023-02-11T20:22:14.098Z,7.92
2023-02-11T20:24:17.351Z,7.92
2023-02-11T20:26:22.217Z,7.95
2023-02-11T20:28:25.200Z,7.95
2023-02-11T20:30:29.402Z,7.94
2023-02-11T20:32:37.824Z,7.95
2023-02-11T20:34:40.661Z,7.97
2023-02-11T20:36:43.620Z,7.96
2023-02-11T20:38:47.357Z,7.95
2023-02-11T20:40:50.292Z,7.95
2023-02-11T20:42:53.300Z,7.95
2023-02-11T20:44:56.156Z,7.96
2023-02-11T20:47:00.238Z,7.96
2023-02-11T20:49:03.354Z,7.96
2023-02-11T20:51:07.917Z,7.96
2023-02-11T20:53:11.263Z,7.96
2023-02-11T20:55:14.085Z,7.96
2023-02-11T20:57:16.845Z,7.96
2023-02-11T20:59:20.864Z,7.97
2023-02-11T21:01:26.208Z,7.96
2023-02-11T21:03:30.464Z,7.95
2023-02-11T21:05:34.432Z,7.95
2023-02-11T21:07:39.093Z,7.96
2023-02-11T21:09:42.016Z,7.96
2023-02-11T21:11:44.868Z,7.97
2023-02-11T21:13:48.577Z,7.98
2023-02-11T21:15:55.818Z,7.98
2023-02-11T21:17:58.706Z,7.98
2023-02-11T21:20:02.866Z,7.97
2023-02-11T21:22:05.717Z,7.96
2023-02-11T21:24:09.831Z,7.97
2023-02-11T21:26:12.750Z,7.96
2023-02-11T21:28:15.659Z,7.96
2023-02-11T21:30:18.702Z,7.96
2023-02-11T21:32:21.610Z,7.94
2023-02-11T21:34:24.489Z,7.92
2023-02-11T21:36:29.934Z,7.91
2023-02-11T21:38:33.121Z,7.91
2023-02-11T21:40:36.080Z,7.92
2023-02-11T21:42:38.954Z,7.93
2023-02-11T21:44:41.790Z,7.93
2023-02-11T21:46:45.277Z,7.92
2023-02-11T21:48:48.530Z,7.91
2023-02-11T21:50:51.320Z,7.91
2023-02-11T21:52:55.534Z,7.89
2023-02-11T21:54:58.318Z,7.88
2023-02-11T21:57:03.046Z,7.87
2023-02-11T21:59:05.884Z,7.84
2023-02-11T22:01:13.791Z,7.83
2023-02-11T22:03:16.633Z,7.83
2023-02-11T22:05:19.684Z,7.83
2023-02-11T22:07:23.488Z,7.81
2023-02-11T22:09:27.660Z,7.80
2023-02-11T22:11:30.433Z,7.82
2023-02-11T22:13:33.789Z,7.80
2023-02-11T22:15:36.536Z,7.80
2023-02-11T22:17:39.514Z,7.79
2023-02-11T22:19:42.822Z,7.81
2023-02-11T22:21:45.632Z,7.84
2023-02-11T22:23:48.916Z,7.84
2023-02-11T22:25:53.257Z,7.83
2023-02-11T22:27:56.070Z,7.81
2023-02-11T22:29:58.895Z,7.81
2023-02-11T22:32:01.963Z,7.80
2023-02-11T22:34:05.422Z,7.81
2023-02-11T22:36:13.528Z,7.82
2023-02-11T22:38:16.563Z,7.83
2023-02-11T22:40:19.585Z,7.82
2023-02-11T22:42:24.223Z,7.82
2023-02-11T22:44:27.597Z,7.82
2023-02-11T22:46:30.594Z,7.83
2023-02-11T22:48:34.189Z,7.77
2023-02-11T22:50:37.070Z,7.79
2023-02-11T22:52:39.835Z,7.79
